Nearby METAR Reports

 

KSJC - San Jose, California, USA
Distance from station: NE 9mi, 14km
Updated: 09/07/2020 09:53
Clear
Clear
 Wind from N
Wind: N 5 mph , 7 km/h
Temperature: 14°C
Dew Point: 10°C
Humidity: 77%
Barometer: 1011.9 hPa
Clouds: Clear
Visibility: 10 miles , 16 km
2020/07/09 08:53 KSJC 090853Z AUTO 35004KT 10SM CLR 14/10 A2988 RMK AO2 SLP118 T01440100 58003
KNUQ - Moffett Nas/Mtn, California, USA
Distance from station: N 9mi, 14km
Updated: 09/07/2020 10:30

 Wind from N
Wind: N 3 mph , 6 km/h
Temperature: 14°C
Dew Point: 11°C
Humidity: 82%
Barometer: 1011.9 hPa
Visibility: 10 miles , 16 km
2020/07/09 09:30 KNUQ 090930Z AUTO 01003KT 10SM 14/11 A2988 RMK AO2
 
KPAO - Palo Alto, California, USA
Distance from station: NNW 14mi, 23km
Updated: 08/07/2020 23:47
NOT Current
Clear
Clear
 Wind from N
Wind: N 20 mph , 31 km/h
Temperature: 22°C
Dew Point: 16°C
Humidity: 69%
Barometer: 1010.8 hPa
Clouds: Clear
Visibility: 10 miles , 16 km
2020/07/08 22:47 KPAO 082247Z 35017KT 10SM SKC 22/16 A2985 RMK LAST
KRHV - San Jose/Reid, California, USA
Distance from station: ENE 12mi, 19km
Updated: 09/07/2020 05:50
NOT Current
Clear
Clear
 Wind from NW
Wind: NW 7 mph , 11 km/h
Temperature: 18°C
Dew Point: 11°C
Humidity: 64%
Barometer: 1012.2 hPa
Clouds: Clear
Visibility: 10 miles , 16 km
2020/07/09 04:50 KRHV 090450Z 31006KT 10SM SKC 18/11 A2989 RMK LAST
 
KOAK - Oakland, California, USA
Distance from station: NNW 31mi, 50km
Updated: 09/07/2020 09:53
Few Clouds
Few Clouds
 Wind from WSW
Wind: WSW 10 mph , 17 km/h
Temperature: 15°C
Dew Point: 11°C
Humidity: 77%
Barometer: 1012.5 hPa
Clouds: Few Clouds
Visibility: 10 miles , 16 km
Cloud details: Few Clouds 366 m
2020/07/09 08:53 KOAK 090853Z 24009KT 10SM FEW012 15/11 A2990 RMK AO2 SLP123 T01500111 58003
KSQL - San Carlos Airpo, California, USA
Distance from station: NW 21mi, 34km
Updated: 09/07/2020 10:35
Clear
Clear
 Wind from calm
Wind: Calm
Temperature: 14°C
Dew Point: 10°C
Humidity: 77%
Barometer: 1012.2 hPa
Clouds: Clear
Visibility: 10 miles , 16 km
2020/07/09 09:35 KSQL 090935Z AUTO 00000KT 10SM CLR 14/10 A2989 RMK AO2
 
KSFO - San Francisco, California, USA
Distance from station: NW 30mi, 49km
Updated: 09/07/2020 09:56
Few Clouds
Few Clouds
 Wind from WNW
Wind: WNW 6 mph , 9 km/h
Temperature: 13°C
Dew Point: 10°C
Humidity: 82%
Barometer: 1011.9 hPa
Clouds: Few Clouds
Visibility: 10 miles , 16 km
Cloud details: Few Clouds 335 m
2020/07/09 08:56 KSFO 090856Z 30005KT 10SM FEW011 13/10 A2988 RMK AO2 SLP117 T01330100 58004
KE16 - San Martin, California, USA
Distance from station: ESE 27mi, 43km
Updated: 09/06/2020 21:20
NOT Current
Clear
Clear
 Wind from NW
Wind: NW 10 mph , 17 km/h
Temperature: 30°C
Dew Point: 2°C
Humidity: 17%
Barometer: 1020.3 hPa
Clouds: Clear
Visibility: 10 miles , 16 km
2020/06/09 20:20 KE16 092020Z AUTO 31009KT 290V350 10SM CLR 30/02 A3013 RMK AO2 PWINO PNO
 
KWVI - Watsonville, California, USA
Distance from station: SSE 27mi, 44km
Updated: 09/07/2020 09:53
Overcast
Overcast
 Wind from calm
Wind: Calm
Temperature: 13°C
Dew Point: 12°C
Humidity: 94%
Barometer: 1013.2 hPa
Clouds: Overcast
Visibility: 9 miles , 14 km
Cloud details: Overcast 152 m
2020/07/09 08:53 KWVI 090853Z AUTO 00000KT 9SM OVC005 13/12 A2992 RMK AO2 SLP130 T01280117 58002
KHAF - Half Moon Bay, California, USA
Distance from station: WNW 31mi, 50km
Updated: 09/07/2020 10:35
Mist, Overcast
Mist, Overcast
 Wind from calm
Wind: Calm
Temperature: 13°C
Dew Point: 10°C
Humidity: 82%
Barometer: 1013.2 hPa
Summary: Mist
Clouds: Overcast
Visibility: 5 miles , 8 km
Cloud details: Overcast 335 m
2020/07/09 09:35 KHAF 090935Z AUTO 00000KT 5SM BR OVC011 13/10 A2992 RMK AO2
 
KHWD - Hayward, California, USA
Distance from station: N 28mi, 44km
Updated: 09/07/2020 09:54
Clear
Clear
 Wind from calm
Wind: Calm
Temperature: 14°C
Dew Point: 11°C
Humidity: 82%
Barometer: 1011.9 hPa
Clouds: Clear
Visibility: 10 miles , 16 km
2020/07/09 08:54 KHWD 090854Z AUTO 00000KT 10SM CLR 14/11 A2988 RMK AO2 SLP127 T01440106 58003
KLVK - Livermore, California, USA
Distance from station: NNE 31mi, 51km
Updated: 09/07/2020 09:53
Clear
Clear
 Wind from WNW
Wind: WNW 9 mph , 15 km/h
Temperature: 14°C
Dew Point: 11°C
Humidity: 82%
Barometer: 1011.5 hPa
Clouds: Clear
Visibility: 10 miles , 16 km
2020/07/09 08:53 KLVK 090853Z AUTO 30008KT 10SM CLR 14/11 A2987 RMK AO2 SLP109 T01390106 55000